sensor_id;sensor_type;location;lat;lon;timestamp;temperature;humidity
55211;DHT22;41082;52.822;6.666;2022-08-02T00:01:39;13.90;99.90
55211;DHT22;41082;52.822;6.666;2022-08-02T00:04:05;13.90;99.90
55211;DHT22;41082;52.822;6.666;2022-08-02T00:06:31;13.90;99.90
55211;DHT22;41082;52.822;6.666;2022-08-02T00:08:57;13.90;99.90
55211;DHT22;41082;52.822;6.666;2022-08-02T00:11:22;13.90;99.90
55211;DHT22;41082;52.822;6.666;2022-08-02T00:13:48;13.90;99.90
55211;DHT22;41082;52.822;6.666;2022-08-02T00:16:14;13.90;99.90
55211;DHT22;41082;52.822;6.666;2022-08-02T00:18:40;13.80;99.90
55211;DHT22;41082;52.822;6.666;2022-08-02T00:21:05;13.80;99.90
55211;DHT22;41082;52.822;6.666;2022-08-02T00:23:31;13.80;99.90
55211;DHT22;41082;52.822;6.666;2022-08-02T00:25:57;13.80;99.90
55211;DHT22;41082;52.822;6.666;2022-08-02T00:28:24;13.80;99.90
55211;DHT22;41082;52.822;6.666;2022-08-02T00:30:50;13.70;99.90
55211;DHT22;41082;52.822;6.666;2022-08-02T00:33:15;13.70;99.90
55211;DHT22;41082;52.822;6.666;2022-08-02T00:35:41;13.70;99.90
55211;DHT22;41082;52.822;6.666;2022-08-02T00:38:07;13.70;99.90
55211;DHT22;41082;52.822;6.666;2022-08-02T00:40:33;13.70;99.90
55211;DHT22;41082;52.822;6.666;2022-08-02T00:43:02;13.70;99.90
55211;DHT22;41082;52.822;6.666;2022-08-02T00:45:39;13.70;99.90
55211;DHT22;41082;52.822;6.666;2022-08-02T00:48:07;13.60;99.90
55211;DHT22;41082;52.822;6.666;2022-08-02T00:50:33;13.60;99.90
55211;DHT22;41082;52.822;6.666;2022-08-02T00:52:59;13.60;99.90
55211;DHT22;41082;52.822;6.666;2022-08-02T00:55:25;13.60;99.90
55211;DHT22;41082;52.822;6.666;2022-08-02T00:57:51;13.60;99.90
55211;DHT22;41082;52.822;6.666;2022-08-02T01:00:17;13.50;99.90
55211;DHT22;41082;52.822;6.666;2022-08-02T01:02:43;13.50;99.90
55211;DHT22;41082;52.822;6.666;2022-08-02T01:05:09;13.50;99.90
55211;DHT22;41082;52.822;6.666;2022-08-02T01:07:35;13.50;99.90
55211;DHT22;41082;52.822;6.666;2022-08-02T01:10:00;13.50;99.90
55211;DHT22;41082;52.822;6.666;2022-08-02T01:12:27;13.50;99.90
55211;DHT22;41082;52.822;6.666;2022-08-02T01:14:56;13.40;99.90
55211;DHT22;41082;52.822;6.666;2022-08-02T01:25:44;13.30;99.90
55211;DHT22;41082;52.822;6.666;2022-08-02T01:28:42;13.30;99.90
55211;DHT22;41082;52.822;6.666;2022-08-02T01:34:34;13.20;99.90
55211;DHT22;41082;52.822;6.666;2022-08-02T01:36:44;13.20;99.90
55211;DHT22;41082;52.822;6.666;2022-08-02T01:39:13;13.20;99.90
55211;DHT22;41082;52.822;6.666;2022-08-02T01:41:40;13.10;99.90
55211;DHT22;41082;52.822;6.666;2022-08-02T01:44:07;13.10;99.90
55211;DHT22;41082;52.822;6.666;2022-08-02T01:46:38;13.10;99.90
55211;DHT22;41082;52.822;6.666;2022-08-02T01:49:06;13.10;99.90
55211;DHT22;41082;52.822;6.666;2022-08-02T01:51:34;13.00;99.90
55211;DHT22;41082;52.822;6.666;2022-08-02T01:54:21;13.00;99.90
55211;DHT22;41082;52.822;6.666;2022-08-02T01:56:50;13.00;99.90
55211;DHT22;41082;52.822;6.666;2022-08-02T01:59:20;13.00;99.90
55211;DHT22;41082;52.822;6.666;2022-08-02T02:01:48;13.00;99.90
55211;DHT22;41082;52.822;6.666;2022-08-02T02:04:16;12.90;99.90
55211;DHT22;41082;52.822;6.666;2022-08-02T02:06:45;12.90;99.90
55211;DHT22;41082;52.822;6.666;2022-08-02T02:09:13;12.90;99.90
55211;DHT22;41082;52.822;6.666;2022-08-02T02:11:42;12.90;99.90
55211;DHT22;41082;52.822;6.666;2022-08-02T02:14:10;12.90;99.90
55211;DHT22;41082;52.822;6.666;2022-08-02T02:16:37;12.90;99.90
55211;DHT22;41082;52.822;6.666;2022-08-02T02:19:06;12.80;99.90
55211;DHT22;41082;52.822;6.666;2022-08-02T02:21:32;12.80;99.90
55211;DHT22;41082;52.822;6.666;2022-08-02T02:23:58;12.80;99.90
55211;DHT22;41082;52.822;6.666;2022-08-02T02:26:24;12.80;99.90
55211;DHT22;41082;52.822;6.666;2022-08-02T02:28:51;12.80;99.90
55211;DHT22;41082;52.822;6.666;2022-08-02T02:31:19;12.80;99.90
55211;DHT22;41082;52.822;6.666;2022-08-02T02:33:49;12.80;99.90
55211;DHT22;41082;52.822;6.666;2022-08-02T02:36:20;12.80;99.90
55211;DHT22;41082;52.822;6.666;2022-08-02T02:38:47;12.70;99.90
55211;DHT22;41082;52.822;6.666;2022-08-02T02:41:15;12.80;99.90
55211;DHT22;41082;52.822;6.666;2022-08-02T02:43:42;12.70;99.90
55211;DHT22;41082;52.822;6.666;2022-08-02T02:46:09;12.70;99.90
55211;DHT22;41082;52.822;6.666;2022-08-02T02:48:35;12.70;99.90
55211;DHT22;41082;52.822;6.666;2022-08-02T02:51:05;12.70;99.90
55211;DHT22;41082;52.822;6.666;2022-08-02T02:53:34;12.70;99.90
55211;DHT22;41082;52.822;6.666;2022-08-02T02:56:01;12.70;99.90
55211;DHT22;41082;52.822;6.666;2022-08-02T02:58:27;12.70;99.90
55211;DHT22;41082;52.822;6.666;2022-08-02T03:00:53;12.70;99.90
55211;DHT22;41082;52.822;6.666;2022-08-02T03:03:37;12.70;99.90
55211;DHT22;41082;52.822;6.666;2022-08-02T03:06:04;12.70;99.90
55211;DHT22;41082;52.822;6.666;2022-08-02T03:08:30;12.70;99.90
55211;DHT22;41082;52.822;6.666;2022-08-02T03:10:55;12.70;99.90
55211;DHT22;41082;52.822;6.666;2022-08-02T03:13:22;12.70;99.90
55211;DHT22;41082;52.822;6.666;2022-08-02T03:15:51;12.70;99.90
55211;DHT22;41082;52.822;6.666;2022-08-02T03:18:34;12.70;99.90
55211;DHT22;41082;52.822;6.666;2022-08-02T03:21:05;12.70;99.90
55211;DHT22;41082;52.822;6.666;2022-08-02T03:23:31;12.60;99.90
55211;DHT22;41082;52.822;6.666;2022-08-02T03:25:57;12.60;99.90
55211;DHT22;41082;52.822;6.666;2022-08-02T03:28:23;12.60;99.90
55211;DHT22;41082;52.822;6.666;2022-08-02T03:30:48;12.60;99.90
55211;DHT22;41082;52.822;6.666;2022-08-02T03:33:14;12.60;99.90
55211;DHT22;41082;52.822;6.666;2022-08-02T03:35:42;12.60;99.90
55211;DHT22;41082;52.822;6.666;2022-08-02T03:38:08;12.60;99.90
55211;DHT22;41082;52.822;6.666;2022-08-02T03:40:36;12.60;99.90
55211;DHT22;41082;52.822;6.666;2022-08-02T03:43:03;12.60;99.90
55211;DHT22;41082;52.822;6.666;2022-08-02T03:45:29;12.60;99.90
55211;DHT22;41082;52.822;6.666;2022-08-02T03:47:55;12.60;99.90
55211;DHT22;41082;52.822;6.666;2022-08-02T03:50:22;12.60;99.90
55211;DHT22;41082;52.822;6.666;2022-08-02T03:52:48;12.60;99.90
55211;DHT22;41082;52.822;6.666;2022-08-02T03:55:14;12.60;99.90
55211;DHT22;41082;52.822;6.666;2022-08-02T03:57:41;12.70;99.90
55211;DHT22;41082;52.822;6.666;2022-08-02T04:00:11;12.70;99.90
55211;DHT22;41082;52.822;6.666;2022-08-02T04:02:41;12.70;99.90
55211;DHT22;41082;52.822;6.666;2022-08-02T04:05:07;12.70;99.90
55211;DHT22;41082;52.822;6.666;2022-08-02T04:07:33;12.70;99.90
55211;DHT22;41082;52.822;6.666;2022-08-02T04:09:58;12.80;99.90
55211;DHT22;41082;52.822;6.666;2022-08-02T04:12:24;12.80;99.90
55211;DHT22;41082;52.822;6.666;2022-08-02T04:14:49;12.80;99.90
55211;DHT22;41082;52.822;6.666;2022-08-02T04:17:17;12.80;99.90
55211;DHT22;41082;52.822;6.666;2022-08-02T04:19:49;12.90;99.90
55211;DHT22;41082;52.822;6.666;2022-08-02T04:22:20;12.90;99.90
55211;DHT22;41082;52.822;6.666;2022-08-02T04:24:54;12.90;99.90
55211;DHT22;41082;52.822;6.666;2022-08-02T04:27:21;13.00;99.90
55211;DHT22;41082;52.822;6.666;2022-08-02T04:29:48;13.00;99.90
55211;DHT22;41082;52.822;6.666;2022-08-02T04:32:15;13.00;99.90
55211;DHT22;41082;52.822;6.666;2022-08-02T04:34:42;13.10;99.90
55211;DHT22;41082;52.822;6.666;2022-08-02T04:37:11;13.10;99.90
55211;DHT22;41082;52.822;6.666;2022-08-02T04:39:37;13.20;99.90
55211;DHT22;41082;52.822;6.666;2022-08-02T04:42:02;13.20;99.90
55211;DHT22;41082;52.822;6.666;2022-08-02T04:44:28;13.20;99.90
55211;DHT22;41082;52.822;6.666;2022-08-02T04:46:54;13.30;99.90
55211;DHT22;41082;52.822;6.666;2022-08-02T04:49:20;13.30;99.90
55211;DHT22;41082;52.822;6.666;2022-08-02T04:51:46;13.30;99.90
55211;DHT22;41082;52.822;6.666;2022-08-02T04:54:11;13.40;99.90
55211;DHT22;41082;52.822;6.666;2022-08-02T04:56:38;13.40;99.90
55211;DHT22;41082;52.822;6.666;2022-08-02T04:59:04;13.40;99.90
55211;DHT22;41082;52.822;6.666;2022-08-02T05:01:31;13.50;99.90
55211;DHT22;41082;52.822;6.666;2022-08-02T05:03:56;13.50;99.90
55211;DHT22;41082;52.822;6.666;2022-08-02T05:06:22;13.50;99.90
55211;DHT22;41082;52.822;6.666;2022-08-02T05:08:49;13.60;99.90
55211;DHT22;41082;52.822;6.666;2022-08-02T05:11:15;13.60;99.90
55211;DHT22;41082;52.822;6.666;2022-08-02T05:13:40;13.60;99.90
55211;DHT22;41082;52.822;6.666;2022-08-02T05:16:06;13.70;99.90
55211;DHT22;41082;52.822;6.666;2022-08-02T05:18:32;13.70;99.90
55211;DHT22;41082;52.822;6.666;2022-08-02T05:20:58;13.70;99.90
55211;DHT22;41082;52.822;6.666;2022-08-02T05:23:23;13.80;99.90
55211;DHT22;41082;52.822;6.666;2022-08-02T05:25:49;13.80;99.90
55211;DHT22;41082;52.822;6.666;2022-08-02T05:28:15;13.90;99.90
55211;DHT22;41082;52.822;6.666;2022-08-02T05:30:41;13.90;99.90
55211;DHT22;41082;52.822;6.666;2022-08-02T05:33:07;13.90;99.90
55211;DHT22;41082;52.822;6.666;2022-08-02T05:35:32;14.00;99.90
55211;DHT22;41082;52.822;6.666;2022-08-02T05:37:59;14.10;99.90
55211;DHT22;41082;52.822;6.666;2022-08-02T05:40:25;14.10;99.90
55211;DHT22;41082;52.822;6.666;2022-08-02T05:42:50;14.10;99.90
55211;DHT22;41082;52.822;6.666;2022-08-02T05:45:16;14.20;99.90
55211;DHT22;41082;52.822;6.666;2022-08-02T05:47:43;14.20;99.90
55211;DHT22;41082;52.822;6.666;2022-08-02T05:50:09;14.30;99.90
55211;DHT22;41082;52.822;6.666;2022-08-02T05:55:32;14.40;99.90
55211;DHT22;41082;52.822;6.666;2022-08-02T06:00:44;14.60;99.90
55211;DHT22;41082;52.822;6.666;2022-08-02T06:03:38;14.70;99.90
55211;DHT22;41082;52.822;6.666;2022-08-02T06:06:08;14.80;99.90
55211;DHT22;41082;52.822;6.666;2022-08-02T06:11:05;15.00;99.90
55211;DHT22;41082;52.822;6.666;2022-08-02T06:13:31;15.20;99.90
55211;DHT22;41082;52.822;6.666;2022-08-02T06:15:58;15.30;99.90
55211;DHT22;41082;52.822;6.666;2022-08-02T06:18:27;15.40;99.90
55211;DHT22;41082;52.822;6.666;2022-08-02T06:20:55;15.60;99.90
55211;DHT22;41082;52.822;6.666;2022-08-02T06:23:22;15.70;99.90
55211;DHT22;41082;52.822;6.666;2022-08-02T06:25:49;15.90;99.90
55211;DHT22;41082;52.822;6.666;2022-08-02T06:28:17;16.00;99.90
55211;DHT22;41082;52.822;6.666;2022-08-02T06:30:44;16.20;99.90
55211;DHT22;41082;52.822;6.666;2022-08-02T06:33:09;16.40;99.90
55211;DHT22;41082;52.822;6.666;2022-08-02T06:35:45;16.60;99.90
55211;DHT22;41082;52.822;6.666;2022-08-02T06:38:21;16.70;99.90
55211;DHT22;41082;52.822;6.666;2022-08-02T06:41:05;16.90;99.90
55211;DHT22;41082;52.822;6.666;2022-08-02T06:46:07;17.20;99.90
55211;DHT22;41082;52.822;6.666;2022-08-02T06:48:33;17.40;99.90
55211;DHT22;41082;52.822;6.666;2022-08-02T06:51:04;17.60;99.90
55211;DHT22;41082;52.822;6.666;2022-08-02T06:53:30;17.70;99.90
55211;DHT22;41082;52.822;6.666;2022-08-02T06:55:56;17.80;99.90
55211;DHT22;41082;52.822;6.666;2022-08-02T06:58:21;17.90;99.90
55211;DHT22;41082;52.822;6.666;2022-08-02T07:00:47;18.00;99.90
55211;DHT22;41082;52.822;6.666;2022-08-02T07:03:13;18.00;99.90
55211;DHT22;41082;52.822;6.666;2022-08-02T07:05:39;18.10;99.90
55211;DHT22;41082;52.822;6.666;2022-08-02T07:08:06;18.20;99.90
55211;DHT22;41082;52.822;6.666;2022-08-02T07:10:31;18.30;99.90
55211;DHT22;41082;52.822;6.666;2022-08-02T07:12:57;18.30;99.90
55211;DHT22;41082;52.822;6.666;2022-08-02T07:15:23;18.40;99.90
55211;DHT22;41082;52.822;6.666;2022-08-02T07:17:49;18.50;99.90
55211;DHT22;41082;52.822;6.666;2022-08-02T07:20:14;18.60;99.90
55211;DHT22;41082;52.822;6.666;2022-08-02T07:22:40;18.80;99.90
55211;DHT22;41082;52.822;6.666;2022-08-02T07:25:06;18.90;99.90
55211;DHT22;41082;52.822;6.666;2022-08-02T07:27:32;19.00;99.90
55211;DHT22;41082;52.822;6.666;2022-08-02T07:29:58;19.10;99.90
55211;DHT22;41082;52.822;6.666;2022-08-02T07:32:30;19.10;99.90
55211;DHT22;41082;52.822;6.666;2022-08-02T07:34:57;19.10;99.90
55211;DHT22;41082;52.822;6.666;2022-08-02T07:37:25;19.10;99.90
55211;DHT22;41082;52.822;6.666;2022-08-02T07:39:51;19.10;99.90
55211;DHT22;41082;52.822;6.666;2022-08-02T07:42:17;19.10;99.90
55211;DHT22;41082;52.822;6.666;2022-08-02T07:44:42;19.10;99.90
55211;DHT22;41082;52.822;6.666;2022-08-02T07:47:08;19.20;99.90
55211;DHT22;41082;52.822;6.666;2022-08-02T07:49:33;19.20;99.90
55211;DHT22;41082;52.822;6.666;2022-08-02T07:51:59;19.30;99.90
55211;DHT22;41082;52.822;6.666;2022-08-02T07:54:25;19.50;99.90
55211;DHT22;41082;52.822;6.666;2022-08-02T07:56:50;19.50;99.90
55211;DHT22;41082;52.822;6.666;2022-08-02T07:59:18;19.60;99.90
55211;DHT22;41082;52.822;6.666;2022-08-02T08:01:43;19.70;99.90
55211;DHT22;41082;52.822;6.666;2022-08-02T08:04:09;19.80;99.90
55211;DHT22;41082;52.822;6.666;2022-08-02T08:06:35;19.90;99.90
55211;DHT22;41082;52.822;6.666;2022-08-02T08:09:00;19.90;99.90
55211;DHT22;41082;52.822;6.666;2022-08-02T08:11:26;20.10;99.90
55211;DHT22;41082;52.822;6.666;2022-08-02T08:13:51;20.20;99.90
55211;DHT22;41082;52.822;6.666;2022-08-02T08:16:17;20.40;99.90
55211;DHT22;41082;52.822;6.666;2022-08-02T08:18:43;20.50;99.90
55211;DHT22;41082;52.822;6.666;2022-08-02T08:21:08;20.70;99.90
55211;DHT22;41082;52.822;6.666;2022-08-02T08:23:35;20.80;99.90
55211;DHT22;41082;52.822;6.666;2022-08-02T08:26:01;21.00;99.80
55211;DHT22;41082;52.822;6.666;2022-08-02T08:28:26;21.10;99.40
55211;DHT22;41082;52.822;6.666;2022-08-02T08:30:52;21.30;98.40
55211;DHT22;41082;52.822;6.666;2022-08-02T08:33:18;21.40;97.80
55211;DHT22;41082;52.822;6.666;2022-08-02T08:35:43;21.60;97.30
55211;DHT22;41082;52.822;6.666;2022-08-02T08:38:09;21.80;96.30
55211;DHT22;41082;52.822;6.666;2022-08-02T08:40:35;22.00;96.10
55211;DHT22;41082;52.822;6.666;2022-08-02T08:43:02;22.20;95.10
55211;DHT22;41082;52.822;6.666;2022-08-02T08:45:28;22.30;94.20
55211;DHT22;41082;52.822;6.666;2022-08-02T08:47:59;22.50;94.20
55211;DHT22;41082;52.822;6.666;2022-08-02T08:50:26;22.60;92.60
55211;DHT22;41082;52.822;6.666;2022-08-02T08:53:06;22.70;91.40
55211;DHT22;41082;52.822;6.666;2022-08-02T08:55:35;22.80;91.90
55211;DHT22;41082;52.822;6.666;2022-08-02T08:58:02;23.00;90.90
55211;DHT22;41082;52.822;6.666;2022-08-02T09:00:30;23.10;90.10
55211;DHT22;41082;52.822;6.666;2022-08-02T09:02:56;23.30;88.70
55211;DHT22;41082;52.822;6.666;2022-08-02T09:05:21;23.40;87.10
55211;DHT22;41082;52.822;6.666;2022-08-02T09:07:49;23.50;83.70
55211;DHT22;41082;52.822;6.666;2022-08-02T09:10:46;23.50;79.10
55211;DHT22;41082;52.822;6.666;2022-08-02T09:15:42;23.70;78.30
55211;DHT22;41082;52.822;6.666;2022-08-02T09:18:09;23.80;79.20
55211;DHT22;41082;52.822;6.666;2022-08-02T09:20:53;24.00;79.10
55211;DHT22;41082;52.822;6.666;2022-08-02T09:23:22;24.20;78.70
55211;DHT22;41082;52.822;6.666;2022-08-02T09:26:05;24.30;76.80
55211;DHT22;41082;52.822;6.666;2022-08-02T09:28:33;24.50;75.10
55211;DHT22;41082;52.822;6.666;2022-08-02T09:31:13;24.60;74.00
55211;DHT22;41082;52.822;6.666;2022-08-02T09:33:40;24.80;74.00
55211;DHT22;41082;52.822;6.666;2022-08-02T09:38:37;25.20;74.00
55211;DHT22;41082;52.822;6.666;2022-08-02T09:41:05;25.30;71.60
55211;DHT22;41082;52.822;6.666;2022-08-02T09:43:41;25.40;70.40
55211;DHT22;41082;52.822;6.666;2022-08-02T09:46:19;25.60;70.70
55211;DHT22;41082;52.822;6.666;2022-08-02T09:48:50;25.60;69.80
55211;DHT22;41082;52.822;6.666;2022-08-02T09:51:17;25.80;69.40
55211;DHT22;41082;52.822;6.666;2022-08-02T09:53:46;25.90;70.00
55211;DHT22;41082;52.822;6.666;2022-08-02T09:56:12;26.00;69.40
55211;DHT22;41082;52.822;6.666;2022-08-02T09:58:38;26.30;69.90
55211;DHT22;41082;52.822;6.666;2022-08-02T10:01:04;26.40;69.90
55211;DHT22;41082;52.822;6.666;2022-08-02T10:03:30;26.40;68.70
55211;DHT22;41082;52.822;6.666;2022-08-02T10:05:56;26.30;67.00
55211;DHT22;41082;52.822;6.666;2022-08-02T10:08:26;26.40;66.60
55211;DHT22;41082;52.822;6.666;2022-08-02T10:10:53;26.30;66.40
55211;DHT22;41082;52.822;6.666;2022-08-02T10:13:35;26.30;67.50
55211;DHT22;41082;52.822;6.666;2022-08-02T10:16:02;26.30;67.40
55211;DHT22;41082;52.822;6.666;2022-08-02T10:18:28;26.20;66.90
55211;DHT22;41082;52.822;6.666;2022-08-02T10:20:56;26.20;67.10
55211;DHT22;41082;52.822;6.666;2022-08-02T10:23:25;26.30;68.40
55211;DHT22;41082;52.822;6.666;2022-08-02T10:25:53;26.30;68.50
55211;DHT22;41082;52.822;6.666;2022-08-02T10:28:25;26.40;69.30
55211;DHT22;41082;52.822;6.666;2022-08-02T10:30:54;26.40;69.60
55211;DHT22;41082;52.822;6.666;2022-08-02T10:33:20;26.50;69.60
55211;DHT22;41082;52.822;6.666;2022-08-02T10:35:49;26.60;69.80
55211;DHT22;41082;52.822;6.666;2022-08-02T10:38:16;26.80;70.90
55211;DHT22;41082;52.822;6.666;2022-08-02T10:40:49;26.90;71.00
55211;DHT22;41082;52.822;6.666;2022-08-02T10:46:24;27.30;71.90
55211;DHT22;41082;52.822;6.666;2022-08-02T10:54:24;27.70;70.60
55211;DHT22;41082;52.822;6.666;2022-08-02T10:56:52;27.80;69.30
55211;DHT22;41082;52.822;6.666;2022-08-02T10:59:34;27.90;69.40
55211;DHT22;41082;52.822;6.666;2022-08-02T11:02:02;28.00;68.50
55211;DHT22;41082;52.822;6.666;2022-08-02T11:07:10;28.20;68.50
55211;DHT22;41082;52.822;6.666;2022-08-02T11:09:37;28.40;67.40
55211;DHT22;41082;52.822;6.666;2022-08-02T11:12:07;28.40;66.40
55211;DHT22;41082;52.822;6.666;2022-08-02T11:14:36;28.40;64.90
55211;DHT22;41082;52.822;6.666;2022-08-02T11:17:15;28.40;64.70
55211;DHT22;41082;52.822;6.666;2022-08-02T11:22:34;28.40;62.60
55211;DHT22;41082;52.822;6.666;2022-08-02T11:30:13;28.60;64.60
55211;DHT22;41082;52.822;6.666;2022-08-02T11:32:39;28.80;66.20
55211;DHT22;41082;52.822;6.666;2022-08-02T11:35:05;28.90;65.90
55211;DHT22;41082;52.822;6.666;2022-08-02T11:37:33;28.90;65.60
55211;DHT22;41082;52.822;6.666;2022-08-02T11:40:01;29.00;65.50
55211;DHT22;41082;52.822;6.666;2022-08-02T11:42:34;29.10;64.80
55211;DHT22;41082;52.822;6.666;2022-08-02T11:45:01;29.10;65.70
55211;DHT22;41082;52.822;6.666;2022-08-02T11:47:26;29.10;65.20
55211;DHT22;41082;52.822;6.666;2022-08-02T11:50:03;29.10;63.10
55211;DHT22;41082;52.822;6.666;2022-08-02T11:52:33;29.20;61.90
55211;DHT22;41082;52.822;6.666;2022-08-02T11:54:59;29.20;62.20
55211;DHT22;41082;52.822;6.666;2022-08-02T11:57:24;29.30;62.30
55211;DHT22;41082;52.822;6.666;2022-08-02T11:59:53;29.30;60.90
55211;DHT22;41082;52.822;6.666;2022-08-02T12:02:20;29.40;61.10
55211;DHT22;41082;52.822;6.666;2022-08-02T12:04:58;29.40;59.90
55211;DHT22;41082;52.822;6.666;2022-08-02T12:07:36;29.30;60.60
55211;DHT22;41082;52.822;6.666;2022-08-02T12:10:10;29.30;60.60
55211;DHT22;41082;52.822;6.666;2022-08-02T12:12:56;29.40;60.70
55211;DHT22;41082;52.822;6.666;2022-08-02T12:15:40;29.50;60.70
55211;DHT22;41082;52.822;6.666;2022-08-02T12:18:14;29.50;60.60
55211;DHT22;41082;52.822;6.666;2022-08-02T12:20:58;29.60;61.50
55211;DHT22;41082;52.822;6.666;2022-08-02T12:23:24;29.70;61.20
55211;DHT22;41082;52.822;6.666;2022-08-02T12:26:03;29.80;61.30
55211;DHT22;41082;52.822;6.666;2022-08-02T12:28:33;29.70;59.80
55211;DHT22;41082;52.822;6.666;2022-08-02T12:31:00;29.70;59.40
55211;DHT22;41082;52.822;6.666;2022-08-02T12:33:47;29.70;60.50
55211;DHT22;41082;52.822;6.666;2022-08-02T12:36:23;29.90;61.40
55211;DHT22;41082;52.822;6.666;2022-08-02T12:38:57;29.90;61.40
55211;DHT22;41082;52.822;6.666;2022-08-02T12:41:23;30.00;61.60
55211;DHT22;41082;52.822;6.666;2022-08-02T12:43:50;30.00;61.80
55211;DHT22;41082;52.822;6.666;2022-08-02T12:46:17;30.00;62.00
55211;DHT22;41082;52.822;6.666;2022-08-02T12:48:43;30.00;61.90
55211;DHT22;41082;52.822;6.666;2022-08-02T12:53:50;30.00;60.90
55211;DHT22;41082;52.822;6.666;2022-08-02T12:56:35;29.90;61.10
55211;DHT22;41082;52.822;6.666;2022-08-02T12:59:02;29.80;60.30
55211;DHT22;41082;52.822;6.666;2022-08-02T13:01:28;29.70;60.30
55211;DHT22;41082;52.822;6.666;2022-08-02T13:03:55;29.60;60.20
55211;DHT22;41082;52.822;6.666;2022-08-02T13:06:20;29.60;60.40
55211;DHT22;41082;52.822;6.666;2022-08-02T13:08:47;29.50;60.50
55211;DHT22;41082;52.822;6.666;2022-08-02T13:11:13;29.40;59.20
55211;DHT22;41082;52.822;6.666;2022-08-02T13:13:38;29.20;59.90
55211;DHT22;41082;52.822;6.666;2022-08-02T13:16:04;29.10;60.70
55211;DHT22;41082;52.822;6.666;2022-08-02T13:18:30;29.00;62.00
55211;DHT22;41082;52.822;6.666;2022-08-02T13:20:55;28.90;61.60
55211;DHT22;41082;52.822;6.666;2022-08-02T13:23:21;28.80;61.30
55211;DHT22;41082;52.822;6.666;2022-08-02T13:25:49;28.70;61.90
55211;DHT22;41082;52.822;6.666;2022-08-02T13:28:15;28.70;62.90
55211;DHT22;41082;52.822;6.666;2022-08-02T13:30:41;28.70;63.90
55211;DHT22;41082;52.822;6.666;2022-08-02T13:33:06;28.60;63.60
55211;DHT22;41082;52.822;6.666;2022-08-02T13:35:32;28.60;63.80
55211;DHT22;41082;52.822;6.666;2022-08-02T13:37:57;28.60;63.30
55211;DHT22;41082;52.822;6.666;2022-08-02T13:40:23;28.50;63.30
55211;DHT22;41082;52.822;6.666;2022-08-02T13:42:49;28.50;63.50
55211;DHT22;41082;52.822;6.666;2022-08-02T13:45:15;28.50;63.00
55211;DHT22;41082;52.822;6.666;2022-08-02T13:47:42;28.50;64.20
55211;DHT22;41082;52.822;6.666;2022-08-02T13:50:08;28.50;65.40
55211;DHT22;41082;52.822;6.666;2022-08-02T13:52:34;28.50;66.20
55211;DHT22;41082;52.822;6.666;2022-08-02T13:54:59;28.50;66.60
55211;DHT22;41082;52.822;6.666;2022-08-02T13:57:25;28.60;66.60
55211;DHT22;41082;52.822;6.666;2022-08-02T13:59:50;28.70;65.50
55211;DHT22;41082;52.822;6.666;2022-08-02T14:02:16;28.70;65.90
55211;DHT22;41082;52.822;6.666;2022-08-02T14:04:42;28.80;66.00
55211;DHT22;41082;52.822;6.666;2022-08-02T14:07:08;28.80;65.00
55211;DHT22;41082;52.822;6.666;2022-08-02T14:09:33;28.70;64.70
55211;DHT22;41082;52.822;6.666;2022-08-02T14:12:03;28.70;65.80
55211;DHT22;41082;52.822;6.666;2022-08-02T14:14:29;28.60;65.10
55211;DHT22;41082;52.822;6.666;2022-08-02T14:16:54;28.50;65.40
55211;DHT22;41082;52.822;6.666;2022-08-02T14:19:20;28.40;66.20
55211;DHT22;41082;52.822;6.666;2022-08-02T14:21:49;28.30;67.00
55211;DHT22;41082;52.822;6.666;2022-08-02T14:24:17;28.30;67.70
55211;DHT22;41082;52.822;6.666;2022-08-02T14:26:43;28.30;69.00
55211;DHT22;41082;52.822;6.666;2022-08-02T14:29:09;28.40;69.40
55211;DHT22;41082;52.822;6.666;2022-08-02T14:31:35;28.50;69.90
55211;DHT22;41082;52.822;6.666;2022-08-02T14:34:01;28.60;70.30
55211;DHT22;41082;52.822;6.666;2022-08-02T14:36:27;28.80;70.20
55211;DHT22;41082;52.822;6.666;2022-08-02T14:38:52;28.90;70.10
55211;DHT22;41082;52.822;6.666;2022-08-02T14:41:18;29.00;70.10
55211;DHT22;41082;52.822;6.666;2022-08-02T14:43:43;29.10;69.60
55211;DHT22;41082;52.822;6.666;2022-08-02T14:46:29;29.20;68.60
55211;DHT22;41082;52.822;6.666;2022-08-02T14:48:54;29.30;67.90
55211;DHT22;41082;52.822;6.666;2022-08-02T14:51:20;29.30;68.00
55211;DHT22;41082;52.822;6.666;2022-08-02T14:53:46;29.40;67.50
55211;DHT22;41082;52.822;6.666;2022-08-02T14:56:12;29.40;66.90
55211;DHT22;41082;52.822;6.666;2022-08-02T14:58:37;29.40;67.00
55211;DHT22;41082;52.822;6.666;2022-08-02T15:01:03;29.40;67.40
55211;DHT22;41082;52.822;6.666;2022-08-02T15:03:28;29.40;67.30
55211;DHT22;41082;52.822;6.666;2022-08-02T15:05:54;29.40;67.70
55211;DHT22;41082;52.822;6.666;2022-08-02T15:08:20;29.40;67.10
55211;DHT22;41082;52.822;6.666;2022-08-02T15:10:45;29.30;65.70
55211;DHT22;41082;52.822;6.666;2022-08-02T15:13:11;29.30;65.70
55211;DHT22;41082;52.822;6.666;2022-08-02T15:15:37;29.40;66.30
55211;DHT22;41082;52.822;6.666;2022-08-02T15:18:02;29.50;67.30
55211;DHT22;41082;52.822;6.666;2022-08-02T15:20:28;29.60;67.60
55211;DHT22;41082;52.822;6.666;2022-08-02T15:22:54;29.70;67.20
55211;DHT22;41082;52.822;6.666;2022-08-02T15:25:20;29.80;66.80
55211;DHT22;41082;52.822;6.666;2022-08-02T15:27:46;29.90;66.00
55211;DHT22;41082;52.822;6.666;2022-08-02T15:30:12;30.00;64.70
55211;DHT22;41082;52.822;6.666;2022-08-02T15:32:37;30.00;64.80
55211;DHT22;41082;52.822;6.666;2022-08-02T15:35:03;30.10;63.50
55211;DHT22;41082;52.822;6.666;2022-08-02T15:37:29;30.10;63.40
55211;DHT22;41082;52.822;6.666;2022-08-02T15:40:00;30.20;64.20
55211;DHT22;41082;52.822;6.666;2022-08-02T15:42:26;30.30;63.60
55211;DHT22;41082;52.822;6.666;2022-08-02T15:44:52;30.30;62.20
55211;DHT22;41082;52.822;6.666;2022-08-02T15:47:17;30.30;61.30
55211;DHT22;41082;52.822;6.666;2022-08-02T15:49:46;30.30;61.00
55211;DHT22;41082;52.822;6.666;2022-08-02T15:52:12;30.40;61.20
55211;DHT22;41082;52.822;6.666;2022-08-02T15:54:38;30.40;60.90
55211;DHT22;41082;52.822;6.666;2022-08-02T15:57:04;30.40;59.20
55211;DHT22;41082;52.822;6.666;2022-08-02T15:59:30;30.30;58.60
55211;DHT22;41082;52.822;6.666;2022-08-02T16:01:55;30.30;58.80
55211;DHT22;41082;52.822;6.666;2022-08-02T16:04:21;30.30;59.50
55211;DHT22;41082;52.822;6.666;2022-08-02T16:06:46;30.30;58.80
55211;DHT22;41082;52.822;6.666;2022-08-02T16:09:12;30.30;58.80
55211;DHT22;41082;52.822;6.666;2022-08-02T16:11:38;30.30;59.20
55211;DHT22;41082;52.822;6.666;2022-08-02T16:14:03;30.30;58.90
55211;DHT22;41082;52.822;6.666;2022-08-02T16:16:31;30.30;58.50
55211;DHT22;41082;52.822;6.666;2022-08-02T16:18:58;30.30;58.30
55211;DHT22;41082;52.822;6.666;2022-08-02T16:21:25;30.30;58.30
55211;DHT22;41082;52.822;6.666;2022-08-02T16:23:52;30.30;59.00